Time;durP1;ratioP1;P1;durP2;ratioP2;P2;SDS_P1;SDS_P2;PMS_P1;PMS_P2;Temp;Humidity;BMP_temperature;BMP_pressure;BME280_temperature;BME280_humidity;BME280_pressure;Samples;Min_cycle;Max_cycle;Signal;HPM_P1;HPM_P2
2022/08/22 00:01:09;;;;;;;4.97;4.53;;;18.30;99.30;;;;;;6107401;23;20461;-65
2022/08/22 00:03:47;;;;;;;5.47;4.97;;;18.20;99.60;;;;;;6095116;23;20532;-65
2022/08/22 00:06:23;;;;;;;7.10;4.93;;;18.20;99.80;;;;;;6112885;23;20440;-65
2022/08/22 00:09:02;;;;;;;5.40;4.57;;;18.10;99.90;;;;;;6100165;23;20488;-65
2022/08/22 00:11:39;;;;;;;4.70;4.30;;;18.10;99.90;;;;;;6108709;23;20533;-65
2022/08/22 00:14:16;;;;;;;5.03;4.50;;;18.10;99.90;;;;;;6111986;23;20531;-65
2022/08/22 00:16:54;;;;;;;5.83;4.50;;;18.10;99.90;;;;;;6109765;23;21033;-65
2022/08/22 00:19:27;;;;;;;6.03;4.50;;;18.10;99.90;;;;;;6109985;23;20437;-65
2022/08/22 00:22:02;;;;;;;5.73;4.60;;;18.10;99.90;;;;;;6113111;23;20482;-65
2022/08/22 00:24:35;;;;;;;5.10;4.50;;;18.10;99.90;;;;;;6097538;23;20465;-65
2022/08/22 00:27:08;;;;;;;5.90;5.10;;;18.10;99.90;;;;;;6104707;23;20438;-66
2022/08/22 00:29:41;;;;;;;6.80;4.50;;;18.10;99.90;;;;;;6095234;23;21809;-64
2022/08/22 00:32:13;;;;;;;8.23;5.33;;;18.20;99.90;;;;;;6096515;23;20561;-65
2022/08/22 00:34:49;;;;;;;4.90;4.10;;;18.10;99.90;;;;;;6107573;23;20457;-65
2022/08/22 00:37:22;;;;;;;6.27;4.30;;;18.00;99.90;;;;;;6103386;23;20436;-65
2022/08/22 00:39:55;;;;;;;5.43;4.40;;;18.00;99.90;;;;;;6107233;23;20474;-65
2022/08/22 00:42:51;;;;;;;5.27;4.57;;;17.90;99.90;;;;;;6096516;23;21444;-65
2022/08/22 00:45:51;;;;;;;5.40;4.63;;;17.90;99.90;;;;;;6114044;23;20465;-65
2022/08/22 00:48:35;;;;;;;6.10;5.40;;;17.80;99.90;;;;;;6107466;23;20475;-65
2022/08/22 00:51:17;;;;;;;6.33;5.10;;;17.80;99.90;;;;;;6109871;23;20477;-65
2022/08/22 00:53:53;;;;;;;6.07;5.03;;;17.80;99.90;;;;;;6113148;23;20963;-65
2022/08/22 00:56:51;;;;;;;5.60;5.10;;;17.70;99.90;;;;;;6098657;23;20441;-65
2022/08/22 00:59:43;;;;;;;5.80;5.20;;;17.70;99.90;;;;;;6093346;23;20509;-65
2022/08/22 01:02:27;;;;;;;5.63;4.73;;;17.60;99.90;;;;;;6109539;23;20602;-65
2022/08/22 01:05:18;;;;;;;5.00;4.60;;;17.60;99.90;;;;;;6103670;23;20496;-65
2022/08/22 01:08:04;;;;;;;6.23;4.90;;;17.50;99.90;;;;;;6109656;23;20448;-65
2022/08/22 01:10:44;;;;;;;5.60;5.10;;;17.40;99.90;;;;;;6108404;23;20556;-65
2022/08/22 01:13:29;;;;;;;6.33;5.43;;;17.40;99.90;;;;;;6110199;23;20472;-65
2022/08/22 01:16:12;;;;;;;5.30;4.77;;;17.30;99.90;;;;;;6118487;23;20528;-65
2022/08/22 01:19:15;;;;;;;5.37;4.83;;;17.20;99.90;;;;;;6101384;23;20442;-65
2022/08/22 01:22:20;;;;;;;5.90;5.00;;;17.20;99.90;;;;;;6087020;23;20482;-65
2022/08/22 01:25:26;;;;;;;5.80;5.30;;;17.20;99.90;;;;;;6099416;23;20441;-65
2022/08/22 01:28:22;;;;;;;5.70;5.20;;;17.20;99.90;;;;;;6110972;23;20523;-65
2022/08/22 01:31:41;;;;;;;4.93;4.43;;;17.20;99.90;;;;;;6111948;23;20537;-65
2022/08/22 01:34:33;;;;;;;7.27;5.30;;;17.30;99.90;;;;;;6069616;23;20441;-65
2022/08/22 01:37:37;;;;;;;6.57;6.00;;;17.30;99.90;;;;;;6115273;23;20521;-66
2022/08/22 01:40:30;;;;;;;5.40;4.90;;;17.30;99.90;;;;;;6108941;23;20441;-65
2022/08/22 01:43:07;;;;;;;6.00;5.47;;;17.30;99.90;;;;;;6098704;23;20528;-65
2022/08/22 01:45:57;;;;;;;6.00;5.40;;;17.30;99.90;;;;;;6106158;23;20793;-65
2022/08/22 01:48:34;;;;;;;6.20;5.67;;;17.40;99.90;;;;;;6101124;23;20442;-65
2022/08/22 01:51:19;;;;;;;5.50;5.10;;;17.40;99.90;;;;;;6107479;23;20480;-65
2022/08/22 01:53:56;;;;;;;5.70;5.10;;;17.10;99.90;;;;;;6104523;23;20445;-65
2022/08/22 01:56:25;;;;;;;6.57;5.60;;;17.40;99.90;;;;;;6113821;23;20440;-65
2022/08/22 01:58:58;;;;;;;6.90;5.67;;;17.40;99.90;;;;;;6110378;23;20469;-65
2022/08/22 02:01:36;;;;;;;5.87;5.33;;;17.30;99.90;;;;;;6112297;23;20470;-65
2022/08/22 02:04:10;;;;;;;5.27;4.77;;;17.30;99.90;;;;;;6100275;23;20445;-65
2022/08/22 02:06:47;;;;;;;6.47;5.93;;;17.30;99.90;;;;;;6107718;23;20469;-65
2022/08/22 02:09:34;;;;;;;5.80;5.30;;;17.20;99.90;;;;;;6097463;23;20457;-65
2022/08/22 02:12:21;;;;;;;5.93;5.33;;;17.20;99.90;;;;;;6095375;23;20545;-65
2022/08/22 02:14:55;;;;;;;6.00;5.40;;;17.20;99.90;;;;;;6099411;23;20487;-65
2022/08/22 02:17:27;;;;;;;6.10;5.60;;;17.20;99.90;;;;;;6115049;23;20459;-65
2022/08/22 02:19:59;;;;;;;7.60;6.43;;;17.30;99.90;;;;;;6113270;23;20501;-65
2022/08/22 02:22:37;;;;;;;7.37;6.67;;;17.20;99.90;;;;;;6096792;23;20469;-65
2022/08/22 02:25:12;;;;;;;7.20;6.50;;;17.10;99.90;;;;;;6107334;23;20434;-65
2022/08/22 02:27:52;;;;;;;6.60;6.00;;;17.00;99.90;;;;;;6115505;23;21030;-65
2022/08/22 02:30:22;;;;;;;7.17;6.57;;;16.90;99.90;;;;;;6108880;23;20437;-65
2022/08/22 02:32:58;;;;;;;6.90;6.40;;;16.80;99.90;;;;;;6108861;23;20500;-65
2022/08/22 02:35:31;;;;;;;6.77;6.17;;;16.70;99.90;;;;;;6112110;23;20839;-65
2022/08/22 02:38:12;;;;;;;7.00;6.40;;;16.50;99.90;;;;;;6108479;23;20493;-65
2022/08/22 02:40:44;;;;;;;6.33;5.83;;;16.30;99.90;;;;;;6106693;23;20465;-65
2022/08/22 02:43:18;;;;;;;6.73;6.03;;;16.10;99.90;;;;;;6103328;23;20977;-65
2022/08/22 02:45:52;;;;;;;6.80;6.20;;;16.00;99.90;;;;;;6108414;23;20489;-65
2022/08/22 02:48:31;;;;;;;7.07;5.70;;;15.90;99.90;;;;;;6110697;23;20500;-66
2022/08/22 02:51:05;;;;;;;6.37;5.80;;;15.80;99.90;;;;;;6097959;23;20801;-65
2022/08/22 02:53:44;;;;;;;6.23;5.70;;;15.70;99.90;;;;;;6105228;23;20441;-65
2022/08/22 02:56:16;;;;;;;6.20;5.53;;;15.50;99.90;;;;;;6099539;23;20446;-64
2022/08/22 02:58:51;;;;;;;5.90;5.30;;;15.40;99.90;;;;;;6103745;23;20488;-64
2022/08/22 03:01:34;;;;;;;5.77;5.27;;;15.30;99.90;;;;;;6113514;23;20559;-65
2022/08/22 03:04:22;;;;;;;6.80;6.00;;;15.30;99.90;;;;;;6101692;23;20437;-65
2022/08/22 03:07:06;;;;;;;10.77;7.00;;;15.20;99.90;;;;;;6101821;23;20986;-65
2022/08/22 03:09:39;;;;;;;7.53;6.70;;;15.20;99.90;;;;;;6108511;23;20463;-65
2022/08/22 03:12:15;;;;;;;7.03;6.37;;;15.10;99.90;;;;;;6112387;23;20475;-65
2022/08/22 03:14:49;;;;;;;6.50;5.80;;;15.10;99.90;;;;;;6101670;23;20935;-64
2022/08/22 03:17:29;;;;;;;7.20;6.50;;;15.00;99.90;;;;;;6104502;23;20486;-65
2022/08/22 03:20:03;;;;;;;7.00;6.40;;;14.90;99.90;;;;;;6116669;23;20482;-64
2022/08/22 03:22:38;;;;;;;6.80;6.10;;;14.90;99.90;;;;;;6099116;23;20970;-65
2022/08/22 03:25:14;;;;;;;7.03;6.30;;;14.90;99.90;;;;;;6096669;23;20469;-65
2022/08/22 03:27:45;;;;;;;7.80;7.10;;;14.90;99.90;;;;;;6097392;23;20539;-64
2022/08/22 03:30:19;;;;;;;7.10;6.47;;;14.80;99.90;;;;;;6100504;23;20475;-64
2022/08/22 03:32:53;;;;;;;8.33;6.80;;;14.70;99.90;;;;;;6112448;23;20551;-64
2022/08/22 03:35:29;;;;;;;7.90;7.20;;;14.70;99.90;;;;;;6109098;23;20466;-65
2022/08/22 03:38:11;;;;;;;7.43;6.70;;;14.70;99.90;;;;;;6091394;23;20476;-64
2022/08/22 03:41:06;;;;;;;7.97;7.17;;;14.80;99.90;;;;;;6107998;23;20440;-64
2022/08/22 03:44:02;;;;;;;7.93;7.23;;;14.80;99.90;;;;;;6104849;23;20945;-64
2022/08/22 03:47:02;;;;;;;9.07;6.93;;;14.90;99.90;;;;;;6093528;23;20545;-64
2022/08/22 03:49:54;;;;;;;8.43;6.90;;;15.00;99.90;;;;;;6101487;23;20524;-64
2022/08/22 03:53:05;;;;;;;7.10;6.50;;;15.00;99.90;;;;;;6109748;23;20479;-64
2022/08/22 03:55:36;;;;;;;7.90;7.03;;;15.00;99.90;;;;;;6105418;23;21154;-64
2022/08/22 03:58:47;;;;;;;7.00;6.40;;;15.00;99.90;;;;;;6102315;23;20442;-64
2022/08/22 04:01:40;;;;;;;7.27;6.70;;;15.00;99.90;;;;;;6107091;23;20458;-66
2022/08/22 04:04:54;;;;;;;7.47;6.77;;;15.10;99.90;;;;;;6107764;23;20465;-65
2022/08/22 04:07:58;;;;;;;6.53;6.00;;;15.20;99.90;;;;;;6056872;23;20541;-65
2022/08/22 04:11:06;;;;;;;8.00;7.30;;;15.20;99.90;;;;;;6097071;23;20532;-65
2022/08/22 04:14:15;;;;;;;6.73;6.10;;;15.20;99.90;;;;;;6106751;23;20515;-65
2022/08/22 04:17:14;;;;;;;7.17;6.60;;;15.20;99.90;;;;;;6078039;23;20444;-65
2022/08/22 04:19:54;;;;;;;8.33;7.20;;;15.20;99.90;;;;;;6094379;23;20439;-65
2022/08/22 04:22:43;;;;;;;7.43;6.80;;;15.20;99.90;;;;;;6090253;23;20468;-65
2022/08/22 04:25:17;;;;;;;7.93;6.50;;;15.20;99.90;;;;;;6101428;23;20470;-65
2022/08/22 04:27:50;;;;;;;8.10;7.40;;;15.10;99.90;;;;;;6097106;23;20864;-65
2022/08/22 04:30:25;;;;;;;7.10;6.50;;;15.10;99.90;;;;;;6093908;23;20460;-65
2022/08/22 04:32:59;;;;;;;7.20;6.50;;;15.10;99.90;;;;;;6100163;23;20510;-65
2022/08/22 04:35:31;;;;;;;7.63;6.93;;;15.00;99.90;;;;;;6114360;23;20440;-65
2022/08/22 04:38:02;;;;;;;8.60;7.00;;;15.10;99.90;;;;;;6111684;23;20512;-65
2022/08/22 04:40:34;;;;;;;7.23;6.60;;;15.10;99.90;;;;;;6102393;23;20899;-65
2022/08/22 04:43:08;;;;;;;7.60;7.00;;;15.10;99.90;;;;;;6111738;23;20461;-66
2022/08/22 04:45:42;;;;;;;8.17;7.47;;;15.10;99.90;;;;;;6106841;23;20437;-65
2022/08/22 04:48:16;;;;;;;7.90;7.30;;;15.00;99.90;;;;;;6095589;23;20441;-65
2022/08/22 04:50:49;;;;;;;7.83;6.87;;;15.00;99.90;;;;;;6098883;23;20445;-65
2022/08/22 04:53:28;;;;;;;8.20;7.40;;;15.10;99.90;;;;;;6110916;23;20495;-65
2022/08/22 04:56:05;;;;;;;7.70;7.10;;;15.10;99.90;;;;;;6112983;23;20454;-65
2022/08/22 04:58:40;;;;;;;8.30;7.50;;;15.10;99.90;;;;;;6098525;23;20828;-65
2022/08/22 05:01:15;;;;;;;7.63;7.00;;;15.10;99.90;;;;;;6113581;23;20488;-65
2022/08/22 05:03:50;;;;;;;7.20;6.50;;;15.10;99.90;;;;;;6105766;23;20579;-65
2022/08/22 05:06:20;;;;;;;7.57;6.83;;;15.10;99.90;;;;;;6106938;23;20948;-65
2022/08/22 05:08:49;;;;;;;7.73;7.13;;;15.00;99.90;;;;;;6104287;23;20453;-65
2022/08/22 05:11:20;;;;;;;7.60;7.00;;;15.00;99.90;;;;;;6098967;23;20465;-65
2022/08/22 05:13:52;;;;;;;8.50;7.80;;;15.00;99.90;;;;;;6103025;23;20438;-65
2022/08/22 05:16:27;;;;;;;7.40;6.70;;;14.90;99.90;;;;;;6114691;23;20437;-65
2022/08/22 05:18:59;;;;;;;7.87;7.17;;;14.90;99.90;;;;;;6101026;23;20437;-65
2022/08/22 05:21:31;;;;;;;8.50;7.70;;;14.90;99.90;;;;;;6113859;23;20495;-65
2022/08/22 05:24:03;;;;;;;8.30;7.50;;;14.80;99.90;;;;;;6101893;23;20441;-65
2022/08/22 05:26:37;;;;;;;7.43;6.83;;;14.80;99.90;;;;;;6096793;23;20441;-75
2022/08/22 05:29:07;;;;;;;9.00;8.13;;;14.90;99.90;;;;;;6098330;23;20456;-81
2022/08/22 05:31:41;;;;;;;7.67;7.00;;;15.10;99.90;;;;;;6106169;23;20457;-65
2022/08/22 05:34:14;;;;;;;8.90;8.00;;;14.90;99.90;;;;;;6107646;23;20515;-66
2022/08/22 05:36:46;;;;;;;8.10;7.40;;;14.90;99.90;;;;;;6095533;23;20491;-66
2022/08/22 05:39:16;;;;;;;8.20;7.50;;;15.00;99.90;;;;;;6106845;23;20477;-66
2022/08/22 05:41:44;;;;;;;8.20;7.60;;;15.10;99.90;;;;;;6106436;23;20436;-65
2022/08/22 05:44:20;;;;;;;9.00;8.10;;;15.10;99.90;;;;;;6105061;23;20434;-65
2022/08/22 05:46:54;;;;;;;8.70;7.90;;;15.20;99.90;;;;;;6109625;23;21146;-66
2022/08/22 05:49:31;;;;;;;7.03;6.40;;;15.30;99.90;;;;;;6106099;23;20476;-65
2022/08/22 05:52:08;;;;;;;7.93;7.13;;;15.30;99.90;;;;;;6105677;23;20457;-66
2022/08/22 05:54:44;;;;;;;7.90;6.77;;;15.40;99.90;;;;;;6101703;23;20495;-65
2022/08/22 05:57:21;;;;;;;7.70;6.67;;;15.50;99.90;;;;;;6113692;23;20436;-67
2022/08/22 05:59:54;;;;;;;7.63;6.93;;;15.60;99.90;;;;;;6109501;23;20489;-66
2022/08/22 06:02:34;;;;;;;7.83;7.13;;;15.60;99.90;;;;;;6099320;23;20564;-67
2022/08/22 06:05:06;;;;;;;7.20;6.50;;;15.60;99.90;;;;;;6103859;23;20445;-66
2022/08/22 06:07:39;;;;;;;7.47;6.77;;;15.70;99.90;;;;;;6107858;23;20446;-66
2022/08/22 06:10:24;;;;;;;7.63;6.93;;;15.70;99.90;;;;;;6112183;23;20978;-66
2022/08/22 06:12:58;;;;;;;7.07;6.57;;;15.70;99.90;;;;;;6093415;23;20511;-66
2022/08/22 06:15:32;;;;;;;7.60;7.00;;;15.70;99.90;;;;;;6106109;23;20924;-67
2022/08/22 06:18:05;;;;;;;7.17;6.47;;;15.80;99.90;;;;;;6107670;23;20477;-66
2022/08/22 06:20:38;;;;;;;6.70;6.17;;;15.80;99.90;;;;;;6103181;23;20433;-65
2022/08/22 06:23:07;;;;;;;7.67;6.20;;;15.90;99.90;;;;;;6101370;23;20980;-66
2022/08/22 06:25:38;;;;;;;6.97;6.30;;;15.90;99.90;;;;;;6111603;23;20801;-67
2022/08/22 06:28:08;;;;;;;7.30;6.40;;;16.10;99.90;;;;;;6101422;23;20581;-66
2022/08/22 06:30:38;;;;;;;6.80;6.30;;;16.20;99.90;;;;;;6096771;23;20433;-66
2022/08/22 06:33:10;;;;;;;7.00;6.33;;;16.30;99.90;;;;;;6099802;23;20824;-66
2022/08/22 06:38:32;;;;;;;6.77;6.17;;;16.60;99.90;;;;;;6111908;23;20455;-66
2022/08/22 06:41:02;;;;;;;7.73;6.97;;;16.70;99.90;;;;;;6104499;23;20454;-66
2022/08/22 06:43:37;;;;;;;7.70;6.90;;;16.80;99.90;;;;;;6108333;23;20518;-66
2022/08/22 06:46:04;;;;;;;6.87;6.30;;;17.00;99.90;;;;;;6103734;23;20437;-67
2022/08/22 06:48:35;;;;;;;6.83;6.13;;;17.20;99.90;;;;;;6101597;23;20525;-66
2022/08/22 06:51:02;;;;;;;7.93;7.23;;;17.40;99.90;;;;;;6105053;23;20516;-66
2022/08/22 06:53:37;;;;;;;7.70;6.90;;;17.60;99.90;;;;;;6103920;23;20468;-66
2022/08/22 06:56:05;;;;;;;9.00;7.27;;;17.80;99.90;;;;;;6100433;23;20453;-66
2022/08/22 06:58:37;;;;;;;7.43;6.83;;;18.00;99.90;;;;;;6105179;23;20499;-66
2022/08/22 07:01:08;;;;;;;7.67;7.00;;;18.30;99.90;;;;;;6097426;23;20450;-66
2022/08/22 07:03:41;;;;;;;6.87;6.27;;;18.60;99.90;;;;;;6100076;23;20442;-67
2022/08/22 07:06:14;;;;;;;7.13;6.53;;;18.90;99.90;;;;;;6087829;23;20541;-66
2022/08/22 07:08:42;;;;;;;7.40;6.80;;;19.30;99.90;;;;;;6101424;23;20435;-67
2022/08/22 07:11:17;;;;;;;6.93;6.27;;;19.50;99.90;;;;;;6096685;23;20446;-67
2022/08/22 07:13:54;;;;;;;7.00;6.30;;;19.90;99.90;;;;;;6102583;23;20466;-67
2022/08/22 07:16:29;;;;;;;8.47;6.43;;;20.10;99.90;;;;;;6097139;23;20481;-66
2022/08/22 07:18:57;;;;;;;7.20;6.18;;;20.40;99.90;;;;;;6090563;23;20462;-66
2022/08/22 07:21:28;;;;;;;6.77;6.10;;;20.90;99.90;;;;;;6087734;23;20264;-65
2022/08/22 16:40:25;;;;;;;3.90;3.20;;;31.30;54.30;;;;;;6206157;22;1315110;-74
2022/08/22 16:43:15;;;;;;;3.10;2.90;;;31.10;55.30;;;;;;6220494;23;20156;-74
2022/08/22 16:45:44;;;;;;;3.73;3.43;;;30.80;54.90;;;;;;6220039;23;20395;-73
2022/08/22 16:48:36;;;;;;;3.53;3.23;;;30.30;55.10;;;;;;6220891;23;21057;-73
2022/08/22 16:51:13;;;;;;;3.17;2.97;;;30.00;56.20;;;;;;6221551;23;20481;-73
2022/08/22 16:54:04;;;;;;;3.30;2.83;;;29.30;55.90;;;;;;6219294;23;20759;-74
2022/08/22 16:56:52;;;;;;;3.10;2.90;;;29.00;57.30;;;;;;6219345;23;20485;-73
2022/08/22 16:59:35;;;;;;;3.27;3.00;;;28.80;58.10;;;;;;6218946;23;20442;-73
2022/08/22 17:02:19;;;;;;;3.10;2.90;;;28.60;58.30;;;;;;6220596;23;20401;-73
2022/08/22 17:05:03;;;;;;;3.10;2.80;;;28.50;58.20;;;;;;6219588;23;20406;-73
2022/08/22 17:07:45;;;;;;;3.30;2.80;;;28.30;57.60;;;;;;6221057;23;20426;-73
2022/08/22 17:10:34;;;;;;;3.40;3.13;;;28.10;58.20;;;;;;6217950;23;20415;-73
2022/08/22 17:13:13;;;;;;;3.60;3.30;;;27.80;58.70;;;;;;6218381;23;20429;-74
2022/08/22 17:15:56;;;;;;;3.30;3.10;;;27.70;59.10;;;;;;6215776;23;20431;-74
2022/08/22 17:18:49;;;;;;;3.63;2.90;;;27.70;59.30;;;;;;6218413;23;20514;-73
2022/08/22 17:21:27;;;;;;;3.60;3.30;;;27.60;59.90;;;;;;6220337;23;21162;-74
2022/08/22 17:24:10;;;;;;;3.60;3.30;;;27.50;59.00;;;;;;6220696;23;20391;-76
2022/08/22 17:26:55;;;;;;;3.80;3.50;;;27.40;59.00;;;;;;6217552;23;20926;-75
2022/08/22 17:29:41;;;;;;;3.37;3.07;;;27.20;59.80;;;;;;6214427;23;20428;-74
2022/08/22 17:32:17;;;;;;;3.30;3.00;;;27.10;60.20;;;;;;6212695;23;20396;-74
2022/08/22 17:34:56;;;;;;;3.53;3.23;;;27.00;59.70;;;;;;6213609;23;20407;-74
2022/08/22 17:40:32;;;;;;;3.20;2.53;;;26.80;60.30;;;;;;6228773;23;20438;-73
2022/08/22 17:43:27;;;;;;;2.70;2.50;;;26.90;60.90;;;;;;6240814;23;20831;-73
2022/08/22 17:46:30;;;;;;;3.10;2.90;;;26.60;61.00;;;;;;6242268;23;20513;-74
2022/08/22 17:49:18;;;;;;;3.10;2.90;;;26.50;61.10;;;;;;6235702;23;20457;-73
2022/08/22 17:51:51;;;;;;;2.87;2.67;;;26.50;61.60;;;;;;6242312;23;20384;-73
2022/08/22 17:54:27;;;;;;;3.50;3.20;;;26.30;61.50;;;;;;6244826;23;20487;-72
2022/08/22 17:56:57;;;;;;;7.33;3.93;;;26.20;62.00;;;;;;6242511;23;20430;-73
2022/08/22 17:59:29;;;;;;;3.40;3.10;;;26.10;62.70;;;;;;6243122;23;20513;-73
2022/08/22 18:02:12;;;;;;;3.03;2.60;;;26.00;63.20;;;;;;6243617;23;20387;-72
2022/08/22 18:04:47;;;;;;;5.13;3.60;;;25.90;63.40;;;;;;6243696;23;20744;-74
2022/08/22 18:07:32;;;;;;;4.37;3.00;;;25.80;63.70;;;;;;6243830;23;20398;-73
2022/08/22 18:10:07;;;;;;;3.87;3.50;;;25.70;64.40;;;;;;6243482;23;20438;-73
2022/08/22 18:12:44;;;;;;;2.97;2.63;;;25.70;65.40;;;;;;6243185;23;20493;-75
2022/08/22 18:15:29;;;;;;;5.37;2.63;;;25.50;63.90;;;;;;6242643;23;20427;-75
2022/08/22 18:18:04;;;;;;;2.70;2.50;;;25.40;64.60;;;;;;6242190;23;20386;-76
2022/08/22 18:20:37;;;;;;;2.97;2.73;;;25.30;65.10;;;;;;6244676;23;20417;-74
2022/08/22 18:23:23;;;;;;;3.07;2.77;;;25.20;65.20;;;;;;6242823;23;20819;-75
2022/08/22 18:26:27;;;;;;;3.97;3.23;;;25.10;65.50;;;;;;6241632;23;20461;-75
2022/08/22 18:29:05;;;;;;;3.80;2.63;;;25.30;65.80;;;;;;6235550;23;20426;-74
2022/08/22 18:31:45;;;;;;;3.50;2.70;;;25.00;65.90;;;;;;6244697;23;20502;-74
2022/08/22 18:34:23;;;;;;;3.67;2.87;;;24.90;65.90;;;;;;6242967;23;20407;-73
2022/08/22 18:37:01;;;;;;;3.27;2.60;;;24.90;66.30;;;;;;6243829;23;20431;-72
2022/08/22 18:39:34;;;;;;;3.33;2.87;;;24.80;66.30;;;;;;6242439;23;20439;-72
2022/08/22 18:42:17;;;;;;;3.20;2.90;;;24.80;66.50;;;;;;6243599;23;20390;-73
2022/08/22 18:44:47;;;;;;;3.20;2.73;;;24.70;66.30;;;;;;6243389;23;20419;-73
2022/08/22 18:47:23;;;;;;;3.33;2.80;;;24.70;66.70;;;;;;6242958;23;20406;-73
2022/08/22 18:49:53;;;;;;;3.03;2.77;;;24.70;67.00;;;;;;6242017;23;20453;-72
2022/08/22 18:52:38;;;;;;;2.70;2.50;;;24.60;67.00;;;;;;6243555;23;20391;-73
2022/08/22 18:55:22;;;;;;;3.90;3.20;;;24.60;67.10;;;;;;6239140;23;20402;-73
2022/08/22 18:58:02;;;;;;;3.40;3.00;;;24.50;67.30;;;;;;6241744;23;20880;-73
2022/08/22 19:00:48;;;;;;;3.07;2.70;;;24.50;67.00;;;;;;6243186;23;20478;-73
2022/08/22 19:03:28;;;;;;;3.20;2.90;;;24.40;67.20;;;;;;6240887;23;20411;-73
2022/08/22 19:06:44;;;;;;;2.60;2.40;;;24.40;67.00;;;;;;6243221;23;20383;-73
2022/08/22 19:09:47;;;;;;;3.37;2.87;;;24.30;67.00;;;;;;6242776;23;20747;-73
2022/08/22 19:12:33;;;;;;;2.80;2.60;;;24.30;67.40;;;;;;6242473;23;20400;-73
2022/08/22 19:15:26;;;;;;;2.97;2.77;;;24.30;67.70;;;;;;6242787;23;20449;-73
2022/08/22 19:18:22;;;;;;;4.70;3.20;;;24.20;67.80;;;;;;6241975;23;20745;-73
2022/08/22 19:24:36;;;;;;;4.17;3.00;;;24.00;68.10;;;;;;6242935;23;20433;-74
2022/08/22 19:27:28;;;;;;;3.13;2.77;;;23.90;68.50;;;;;;6242635;23;20752;-74
2022/08/22 19:30:12;;;;;;;4.30;2.77;;;23.80;69.40;;;;;;6242149;23;20422;-74
2022/08/22 19:33:05;;;;;;;3.70;3.20;;;23.70;69.40;;;;;;6241066;23;20469;-73
2022/08/22 19:35:58;;;;;;;3.57;3.07;;;23.70;70.60;;;;;;6242912;23;20757;-73
2022/08/22 19:38:52;;;;;;;3.00;2.70;;;23.50;70.40;;;;;;6237721;23;20423;-74
2022/08/22 19:41:43;;;;;;;3.30;2.70;;;23.50;70.90;;;;;;6241458;23;20419;-74
2022/08/22 19:44:37;;;;;;;2.93;2.63;;;23.40;71.00;;;;;;6243979;23;20395;-74
2022/08/22 19:47:22;;;;;;;3.43;3.13;;;23.30;71.50;;;;;;6240738;23;20416;-74
2022/08/22 19:50:00;;;;;;;3.10;2.87;;;23.30;72.20;;;;;;6240664;23;20427;-73
2022/08/22 19:52:58;;;;;;;3.33;3.03;;;23.20;72.60;;;;;;6242833;23;20409;-74
2022/08/22 19:55:32;;;;;;;3.50;2.70;;;23.10;73.00;;;;;;6242754;23;20435;-74
2022/08/22 19:58:09;;;;;;;3.40;3.10;;;23.10;73.50;;;;;;6242853;23;20411;-73
2022/08/22 20:00:49;;;;;;;3.13;2.80;;;23.20;74.00;;;;;;6241526;23;20382;-72
2022/08/22 20:03:26;;;;;;;4.27;2.77;;;23.00;73.90;;;;;;6240608;23;20490;-72
2022/08/22 20:06:01;;;;;;;3.17;2.87;;;23.00;74.00;;;;;;6242110;23;20391;-73
2022/08/22 20:09:01;;;;;;;3.83;3.20;;;22.90;74.90;;;;;;6242510;23;20501;-72
2022/08/22 20:11:41;;;;;;;3.43;3.10;;;23.00;76.40;;;;;;6242290;23;20387;-72
2022/08/22 20:14:19;;;;;;;3.50;3.20;;;22.60;77.60;;;;;;6242919;23;20440;-72
2022/08/22 20:17:10;;;;;;;3.20;2.83;;;22.50;78.10;;;;;;6243587;23;20430;-72
2022/08/22 20:19:43;;;;;;;3.20;2.53;;;22.30;78.60;;;;;;6241737;23;21029;-73
2022/08/22 20:22:17;;;;;;;3.10;2.90;;;22.10;79.00;;;;;;6241650;23;20384;-72
2022/08/22 20:24:47;;;;;;;3.37;3.10;;;22.10;79.90;;;;;;6242250;23;20495;-72
2022/08/22 20:27:19;;;;;;;3.20;2.87;;;22.00;80.80;;;;;;6242195;23;20474;-71
2022/08/22 20:29:51;;;;;;;3.23;2.93;;;21.90;80.90;;;;;;6242954;23;20437;-72
2022/08/22 20:32:22;;;;;;;3.10;2.80;;;21.80;81.50;;;;;;6243022;23;20887;-72
2022/08/22 20:34:55;;;;;;;3.33;3.03;;;21.70;81.70;;;;;;6241608;23;20743;-72
2022/08/22 20:37:25;;;;;;;3.20;3.00;;;21.70;82.80;;;;;;6241260;23;20459;-72
2022/08/22 20:39:58;;;;;;;4.80;2.77;;;21.60;83.00;;;;;;6240759;23;20513;-72
2022/08/22 20:42:28;;;;;;;4.70;2.97;;;21.60;83.70;;;;;;6238775;23;20390;-72
2022/08/22 20:44:56;;;;;;;3.73;3.13;;;21.50;84.10;;;;;;6236738;23;20884;-72
2022/08/22 20:47:27;;;;;;;4.00;2.80;;;21.50;84.50;;;;;;6238975;23;20418;-72
2022/08/22 20:49:56;;;;;;;3.10;2.80;;;21.40;84.90;;;;;;6241861;23;20421;-72
2022/08/22 20:52:28;;;;;;;3.80;3.00;;;21.40;85.60;;;;;;6242328;23;20905;-71
2022/08/22 20:55:01;;;;;;;3.80;2.90;;;21.30;85.70;;;;;;6241296;23;20401;-71
2022/08/22 20:57:29;;;;;;;3.50;3.20;;;21.20;86.40;;;;;;6243676;23;20428;-71
2022/08/22 21:00:04;;;;;;;3.33;3.00;;;21.10;87.10;;;;;;6242303;23;20438;-71
2022/08/22 21:02:37;;;;;;;3.27;2.97;;;21.10;88.00;;;;;;6243164;23;20383;-71
2022/08/22 21:05:17;;;;;;;3.70;3.40;;;21.00;88.40;;;;;;6243509;23;20766;-71
2022/08/22 21:07:45;;;;;;;2.90;2.70;;;21.00;89.10;;;;;;6245316;23;20481;-71
2022/08/22 21:13:07;;;;;;;3.90;2.70;;;20.90;89.90;;;;;;6242339;23;20393;-71
2022/08/22 21:15:36;;;;;;;3.97;2.97;;;20.80;90.30;;;;;;6241812;23;20910;-71
2022/08/22 21:18:06;;;;;;;4.20;3.20;;;20.80;90.60;;;;;;6244166;23;20443;-72
2022/08/22 21:20:36;;;;;;;4.03;3.10;;;20.70;90.70;;;;;;6243785;23;20411;-72
2022/08/22 21:23:07;;;;;;;3.70;3.13;;;20.70;91.00;;;;;;6242826;23;20419;-71
2022/08/22 21:25:50;;;;;;;3.00;2.80;;;20.70;91.00;;;;;;6243108;23;20444;-72
2022/08/22 21:28:28;;;;;;;3.60;3.30;;;20.70;91.40;;;;;;6244055;23;20535;-72
2022/08/22 21:30:56;;;;;;;3.77;3.40;;;20.70;91.70;;;;;;6243972;23;20415;-72
2022/08/22 21:33:25;;;;;;;3.60;2.80;;;20.60;91.80;;;;;;6244428;23;20414;-71
2022/08/22 21:35:57;;;;;;;4.10;2.73;;;20.60;91.90;;;;;;6243506;23;20416;-72
2022/08/22 21:38:25;;;;;;;3.53;3.23;;;20.50;91.90;;;;;;6243661;23;20686;-72
2022/08/22 21:40:52;;;;;;;2.90;2.70;;;20.50;92.10;;;;;;6243699;23;20940;-71
2022/08/22 21:43:32;;;;;;;3.23;2.93;;;20.50;92.20;;;;;;6244564;23;20438;-71
2022/08/22 21:46:00;;;;;;;3.37;3.07;;;20.50;92.60;;;;;;6243035;23;20391;-72
2022/08/22 21:48:34;;;;;;;3.17;2.97;;;20.40;92.60;;;;;;6244532;23;20484;-71
2022/08/22 21:51:21;;;;;;;2.93;2.70;;;20.50;92.70;;;;;;6243950;23;20898;-72
2022/08/22 21:53:49;;;;;;;3.33;2.93;;;20.50;92.80;;;;;;6243562;23;20410;-71
2022/08/22 21:56:28;;;;;;;4.53;2.70;;;20.40;92.70;;;;;;6242726;23;20917;-71
2022/08/22 21:59:19;;;;;;;2.97;2.67;;;20.40;92.70;;;;;;6243651;23;20422;-72
2022/08/22 22:01:47;;;;;;;4.97;3.00;;;20.40;93.00;;;;;;6244045;23;20933;-71
2022/08/22 22:04:15;;;;;;;3.30;3.00;;;20.40;93.20;;;;;;6244032;23;20740;-71
2022/08/22 22:06:43;;;;;;;3.13;2.90;;;20.30;93.50;;;;;;6242978;23;20427;-72
2022/08/22 22:09:10;;;;;;;3.67;3.00;;;20.20;93.90;;;;;;6243197;23;21054;-71
2022/08/22 22:11:40;;;;;;;4.70;2.83;;;20.20;94.10;;;;;;6243929;23;20435;-71
2022/08/22 22:14:07;;;;;;;3.17;2.83;;;20.10;94.50;;;;;;6244488;23;20438;-71
2022/08/22 22:16:34;;;;;;;2.87;2.67;;;20.00;94.60;;;;;;6242197;23;20985;-71
2022/08/22 22:19:01;;;;;;;4.00;3.00;;;19.90;94.90;;;;;;6243437;23;20422;-72
2022/08/22 22:21:30;;;;;;;2.90;2.70;;;19.90;95.10;;;;;;6242996;23;20985;-71
2022/08/22 22:23:57;;;;;;;4.20;3.07;;;19.90;95.50;;;;;;6245179;23;20449;-71
2022/08/22 22:26:25;;;;;;;5.17;3.10;;;19.90;95.90;;;;;;6242071;23;20450;-71
2022/08/22 22:28:52;;;;;;;4.20;3.00;;;19.70;96.30;;;;;;6242893;23;20423;-72
2022/08/22 22:31:19;;;;;;;3.00;2.70;;;19.60;96.50;;;;;;6243426;23;20766;-72
2022/08/22 22:33:47;;;;;;;3.70;3.30;;;19.60;96.80;;;;;;6244773;23;20380;-72
2022/08/22 22:36:16;;;;;;;5.50;2.90;;;19.50;96.90;;;;;;6242822;23;20433;-72
2022/08/22 22:38:45;;;;;;;3.37;3.03;;;19.50;97.00;;;;;;6243349;23;20983;-72
2022/08/22 22:41:12;;;;;;;3.20;2.70;;;19.40;97.10;;;;;;6241267;23;20522;-71
2022/08/22 22:43:39;;;;;;;3.53;3.23;;;19.40;97.20;;;;;;6244222;23;20488;-72
2022/08/22 22:46:06;;;;;;;3.17;2.93;;;19.40;97.20;;;;;;6241606;23;20689;-72
2022/08/22 22:48:34;;;;;;;2.87;2.67;;;19.40;97.40;;;;;;6241427;23;21194;-72
2022/08/22 22:51:07;;;;;;;3.83;2.60;;;19.40;97.70;;;;;;6243293;23;20905;-72
2022/08/22 22:53:34;;;;;;;4.57;3.20;;;19.30;97.80;;;;;;6244868;23;20426;-72
2022/08/22 22:56:04;;;;;;;2.97;2.73;;;19.30;98.00;;;;;;6242354;23;20925;-72
2022/08/22 22:58:32;;;;;;;3.33;2.60;;;19.30;98.00;;;;;;6243076;23;20473;-72
2022/08/22 23:01:06;;;;;;;2.50;2.30;;;19.30;98.20;;;;;;6241614;23;20427;-72
2022/08/22 23:03:32;;;;;;;3.17;2.87;;;19.20;98.20;;;;;;6244239;23;20462;-72
2022/08/22 23:06:00;;;;;;;2.53;2.33;;;19.20;98.30;;;;;;6243008;23;20719;-71
2022/08/22 23:08:27;;;;;;;2.73;2.47;;;19.20;98.60;;;;;;6242583;23;20736;-71
2022/08/22 23:10:54;;;;;;;2.97;2.77;;;19.20;98.80;;;;;;6242700;23;20423;-72